Time;durP1;ratioP1;P1;durP2;ratioP2;P2;SDS_P1;SDS_P2;PMS_P1;PMS_P2;Temp;Humidity;BMP_temperature;BMP_pressure;BME280_temperature;BME280_humidity;BME280_pressure;Samples;Min_cycle;Max_cycle;Signal;HPM_P1;HPM_P2
2021/10/02 00:44:39;;;;;;;13.88;9.15;;;;;;;11.15;100.00;102189.72;5115816;28;20051;-72
2021/10/02 00:47:28;;;;;;;19.15;10.07;;;;;;;11.00;100.00;102197.50;5116305;28;20078;-72
2021/10/02 00:50:14;;;;;;;16.08;9.73;;;;;;;11.00;100.00;102189.66;5101636;28;20023;-71
2021/10/02 00:53:00;;;;;;;15.95;9.70;;;;;;;10.80;100.00;102188.69;5116223;28;20102;-73
2021/10/02 00:55:46;;;;;;;17.08;10.27;;;;;;;10.76;100.00;102184.28;5115716;28;20024;-72
2021/10/02 00:58:32;;;;;;;41.97;11.32;;;;;;;10.66;100.00;102177.25;5115624;28;20460;-72
2021/10/02 01:01:40;;;;;;;21.92;11.10;;;;;;;10.61;100.00;102183.34;5115799;28;20028;-74
2021/10/02 01:04:44;;;;;;;18.27;11.13;;;;;;;10.66;100.00;102182.50;5114336;28;20027;-73
2021/10/02 01:07:53;;;;;;;16.30;11.48;;;;;;;10.91;100.00;102186.09;5114796;28;20080;-73
2021/10/02 01:10:49;;;;;;;17.70;12.30;;;;;;;10.82;100.00;102181.72;5114311;28;20131;-72
2021/10/02 01:13:56;;;;;;;21.48;11.80;;;;;;;10.76;100.00;102181.66;5114145;28;20023;-72
2021/10/02 01:16:45;;;;;;;16.20;12.65;;;;;;;11.19;100.00;102187.97;5114082;28;20038;-72
2021/10/02 01:20:10;;;;;;;20.48;13.20;;;;;;;11.09;100.00;102188.81;5101214;28;20023;-72
2021/10/02 01:23:02;;;;;;;18.55;12.88;;;;;;;11.35;100.00;102184.53;5115165;28;20030;-71
2021/10/02 01:26:27;;;;;;;21.92;14.00;;;;;;;10.76;100.00;102183.44;5115076;28;20023;-72
2021/10/02 01:29:16;;;;;;;26.42;14.02;;;;;;;11.21;100.00;102184.47;5100935;28;20038;-72
2021/10/02 01:32:11;;;;;;;21.23;13.57;;;;;;;11.04;100.00;102183.53;5114307;28;20441;-71
2021/10/02 01:35:18;;;;;;;21.35;13.57;;;;;;;11.04;100.00;102188.78;5100816;28;20354;-73
2021/10/02 01:47:23;;;;;;;27.02;14.18;;;;;;;10.92;100.00;102186.13;5114778;28;20031;-72
2021/10/02 01:50:10;;;;;;;25.80;14.52;;;;;;;10.96;100.00;102184.38;5114325;28;20114;-72
2021/10/02 01:53:01;;;;;;;22.00;13.63;;;;;;;11.03;100.00;102191.41;5113447;28;20110;-72
2021/10/02 01:55:49;;;;;;;27.30;14.68;;;;;;;11.13;100.00;102183.56;5114158;28;20066;-72
2021/10/02 01:58:35;;;;;;;24.60;14.73;;;;;;;10.82;100.00;102184.34;5113725;28;20114;-72
2021/10/02 02:01:22;;;;;;;28.63;15.88;;;;;;;10.66;100.00;102190.38;5114998;28;20023;-73
2021/10/02 02:04:09;;;;;;;34.08;15.73;;;;;;;10.87;100.00;102185.22;5100029;28;20031;-72
2021/10/02 02:06:57;;;;;;;28.85;16.00;;;;;;;11.03;100.00;102184.41;5099954;28;20123;-72
2021/10/02 02:09:45;;;;;;;30.48;16.90;;;;;;;11.13;100.00;102177.47;5113639;28;20115;-72
2021/10/02 02:12:32;;;;;;;32.55;15.40;;;;;;;10.74;100.00;102183.41;5113770;28;20049;-72
2021/10/02 02:15:20;;;;;;;27.88;15.95;;;;;;;10.45;100.00;102179.72;5113543;28;20020;-72
2021/10/02 02:18:12;;;;;;;33.28;15.52;;;;;;;10.26;100.00;102184.84;5114154;28;20034;-74
2021/10/02 02:21:01;;;;;;;26.45;14.98;;;;;;;10.35;100.00;102179.66;5113163;28;20371;-72
2021/10/02 02:23:47;;;;;;;28.15;15.15;;;;;;;10.06;100.00;102187.31;5100197;28;20413;-72
2021/10/02 02:26:35;;;;;;;33.80;15.68;;;;;;;10.37;100.00;102181.44;5113633;28;20023;-72
2021/10/02 02:29:21;;;;;;;25.63;15.82;;;;;;;10.21;100.00;102179.59;5116516;28;20069;-72
2021/10/02 02:32:07;;;;;;;25.52;16.10;;;;;;;10.24;100.00;102181.34;5118915;28;20042;-73
2021/10/02 02:34:53;;;;;;;26.80;15.95;;;;;;;10.42;100.00;102186.72;5102284;28;20448;-72
2021/10/02 02:37:40;;;;;;;24.95;16.05;;;;;;;10.23;100.00;102182.19;5118668;28;20081;-73
2021/10/02 02:40:26;;;;;;;26.08;16.42;;;;;;;10.22;100.00;102175.22;5103240;28;20031;-72
2021/10/02 02:43:12;;;;;;;29.08;16.10;;;;;;;10.31;100.00;102181.41;5117614;28;20320;-71
2021/10/02 02:46:11;;;;;;;24.65;15.73;;;;;;;10.07;100.00;102182.09;5103570;28;20034;-72
2021/10/02 02:49:14;;;;;;;29.45;16.60;;;;;;;10.04;100.00;102179.41;5119001;28;20451;-72
2021/10/02 02:52:10;;;;;;;23.73;15.75;;;;;;;10.23;100.00;102176.97;5116561;28;20077;-71
2021/10/02 02:55:06;;;;;;;25.27;15.50;;;;;;;10.25;100.00;102173.50;5102691;28;20039;-71
2021/10/02 02:57:59;;;;;;;26.73;14.10;;;;;;;10.18;100.00;102175.19;5117821;28;20031;-73
2021/10/02 03:00:56;;;;;;;30.00;14.75;;;;;;;9.94;100.00;102163.63;5117171;28;20024;-72
2021/10/02 03:03:45;;;;;;;29.20;14.73;;;;;;;9.79;100.00;102176.59;5102121;28;20028;-71
2021/10/02 03:06:33;;;;;;;26.10;14.48;;;;;;;9.77;100.00;102175.72;5116883;28;20035;-72
2021/10/02 03:09:20;;;;;;;24.52;13.95;;;;;;;10.03;100.00;102176.78;5116489;28;20432;-72
2021/10/02 03:12:08;;;;;;;33.13;14.68;;;;;;;9.91;100.00;102179.31;5117532;28;20052;-72
2021/10/02 03:14:55;;;;;;;24.25;14.75;;;;;;;9.91;100.00;102179.31;5116192;28;20072;-71
2021/10/02 03:17:43;;;;;;;25.60;14.52;;;;;;;9.95;100.00;102173.22;5117566;28;20041;-71
2021/10/02 03:20:29;;;;;;;26.98;15.23;;;;;;;9.95;100.00;102176.75;5116633;28;20082;-71
2021/10/02 03:23:18;;;;;;;25.55;14.27;;;;;;;10.18;100.00;102171.72;5117698;28;20124;-71
2021/10/02 03:26:05;;;;;;;23.67;15.32;;;;;;;10.37;100.00;102163.09;5118117;28;20065;-72
2021/10/02 03:28:51;;;;;;;24.55;14.57;;;;;;;10.33;100.00;102170.94;5116469;28;20110;-73
2021/10/02 03:31:37;;;;;;;25.70;14.85;;;;;;;10.46;100.00;102172.75;5117754;28;20027;-72
2021/10/02 03:34:23;;;;;;;22.42;15.15;;;;;;;10.52;100.00;102176.28;5116186;28;20165;-72
2021/10/02 03:37:09;;;;;;;24.90;15.43;;;;;;;10.44;100.00;102169.28;5101792;28;20030;-72
2021/10/02 03:39:55;;;;;;;28.95;16.00;;;;;;;10.56;100.00;102172.81;5116434;28;20020;-72
2021/10/02 03:42:47;;;;;;;26.63;15.57;;;;;;;10.52;100.00;102168.44;5116816;28;20337;-72
2021/10/02 03:45:36;;;;;;;24.90;16.15;;;;;;;10.40;100.00;102165.72;5116436;28;20039;-72
2021/10/02 03:48:22;;;;;;;26.85;17.23;;;;;;;10.70;100.00;102165.94;5101094;28;20446;-72
2021/10/02 03:51:08;;;;;;;29.80;16.98;;;;;;;10.76;100.00;102167.69;5115710;28;20031;-73
2021/10/02 03:53:54;;;;;;;29.23;16.83;;;;;;;10.70;100.00;102162.41;5115994;28;20039;-71
2021/10/02 03:56:40;;;;;;;30.10;16.40;;;;;;;10.85;100.00;102165.13;5101671;28;20508;-72
2021/10/02 03:59:26;;;;;;;27.75;16.90;;;;;;;10.80;100.00;102164.22;5117117;28;20027;-72
2021/10/02 04:02:12;;;;;;;27.50;15.63;;;;;;;10.37;100.00;102159.59;5116605;28;20088;-72
2021/10/02 04:04:58;;;;;;;28.35;15.50;;;;;;;10.20;100.00;102163.88;5101296;28;20020;-72
2021/10/02 04:07:43;;;;;;;24.35;14.85;;;;;;;10.18;100.00;102161.22;5116998;28;20077;-71
2021/10/02 04:10:29;;;;;;;19.98;13.68;;;;;;;10.16;100.00;102162.09;5116543;28;20054;-71
2021/10/02 04:13:15;;;;;;;22.30;14.23;;;;;;;10.33;100.00;102166.56;5117790;28;20027;-71
2021/10/02 04:16:01;;;;;;;20.15;14.02;;;;;;;10.38;100.00;102163.97;5115744;28;20031;-71
2021/10/02 04:18:46;;;;;;;19.52;13.27;;;;;;;10.53;100.00;102167.56;5101878;28;20024;-72
2021/10/02 04:21:32;;;;;;;20.45;13.20;;;;;;;10.23;100.00;102175.22;5116466;28;20424;-73
2021/10/02 04:24:18;;;;;;;21.70;13.50;;;;;;;10.79;100.00;102170.31;5115977;28;20160;-72
2021/10/02 04:27:04;;;;;;;23.17;13.07;;;;;;;10.58;100.00;102170.22;5119322;27;20129;-70
2021/10/02 04:29:50;;;;;;;24.98;14.05;;;;;;;10.25;100.00;102170.91;5101565;28;20115;-72
2021/10/02 04:32:36;;;;;;;17.05;12.65;;;;;;;9.96;100.00;102174.97;5114982;28;20118;-72
2021/10/02 04:35:21;;;;;;;22.00;13.25;;;;;;;10.61;100.00;102178.97;5117239;28;20106;-72
2021/10/02 04:38:07;;;;;;;21.08;14.23;;;;;;;10.65;100.00;102182.50;5116189;28;20034;-72
2021/10/02 04:40:54;;;;;;;23.55;13.82;;;;;;;10.34;100.00;102177.91;5116140;28;20082;-72
2021/10/02 04:43:44;;;;;;;26.08;14.13;;;;;;;10.16;100.00;102176.03;5115022;28;20118;-72
2021/10/02 04:46:30;;;;;;;20.70;13.20;;;;;;;10.26;100.00;102179.63;5101167;28;20114;-72
2021/10/02 04:49:16;;;;;;;25.50;13.80;;;;;;;10.58;100.00;102178.97;5100898;28;20066;-72
2021/10/02 04:52:02;;;;;;;23.85;13.55;;;;;;;10.49;100.00;102183.28;5100692;28;20098;-72
2021/10/02 04:54:48;;;;;;;21.13;12.80;;;;;;;10.72;100.00;102181.66;5115141;28;20114;-72
2021/10/02 04:57:34;;;;;;;23.98;13.02;;;;;;;10.96;100.00;102182.63;5099994;28;20034;-72
2021/10/02 05:00:20;;;;;;;21.83;12.85;;;;;;;10.46;100.00;102192.00;5116717;28;20024;-72
2021/10/02 05:03:06;;;;;;;23.50;13.93;;;;;;;10.24;100.00;102190.06;5100568;28;20027;-72
2021/10/02 05:05:52;;;;;;;24.17;13.20;;;;;;;10.45;100.00;102189.34;5115078;28;20028;-72
2021/10/02 05:08:37;;;;;;;21.13;12.93;;;;;;;10.49;100.00;102193.75;5115550;28;20025;-73
2021/10/02 05:11:23;;;;;;;21.60;12.15;;;;;;;10.91;100.00;102189.63;5115423;28;20127;-72
2021/10/02 05:14:09;;;;;;;23.70;13.15;;;;;;;10.84;100.00;102185.19;5100311;28;20493;-73
2021/10/02 05:16:55;;;;;;;26.27;12.77;;;;;;;10.90;100.00;102185.25;5116280;28;20107;-73
2021/10/02 05:19:41;;;;;;;20.63;13.35;;;;;;;11.09;100.00;102189.69;5115817;28;20027;-72
2021/10/02 05:22:27;;;;;;;27.13;13.75;;;;;;;10.63;100.00;102185.09;5115526;28;20027;-72
2021/10/02 05:25:12;;;;;;;21.00;12.82;;;;;;;10.68;100.00;102183.38;5099291;28;20035;-71
2021/10/02 05:27:58;;;;;;;25.63;14.02;;;;;;;10.76;100.00;102191.31;5115099;28;20031;-72
2021/10/02 05:30:44;;;;;;;23.20;13.95;;;;;;;10.85;100.00;102193.97;5115131;28;20031;-73
2021/10/02 05:33:30;;;;;;;26.33;13.48;;;;;;;10.68;100.00;102190.38;5115028;28;20106;-73
2021/10/02 05:36:16;;;;;;;18.42;11.68;;;;;;;10.77;100.00;102193.91;5100319;28;20031;-73
2021/10/02 05:39:03;;;;;;;21.38;12.10;;;;;;;10.93;100.00;102195.72;5115062;28;20455;-72
2021/10/02 05:41:49;;;;;;;25.85;12.77;;;;;;;10.88;100.00;102189.59;5113896;28;20023;-72
2021/10/02 05:44:35;;;;;;;23.13;13.68;;;;;;;11.27;100.00;102195.00;5098996;28;20043;-72
2021/10/02 05:47:21;;;;;;;19.23;11.65;;;;;;;11.07;100.00;102190.53;5114757;28;20108;-72
2021/10/02 05:50:07;;;;;;;20.48;12.63;;;;;;;11.01;100.00;102206.28;5114232;28;20420;-72
2021/10/02 05:52:53;;;;;;;20.08;12.32;;;;;;;11.35;100.00;102203.78;5114684;28;20042;-72
2021/10/02 05:55:38;;;;;;;22.92;13.48;;;;;;;11.78;100.00;102205.63;5114177;28;20027;-72
2021/10/02 05:58:24;;;;;;;24.52;14.15;;;;;;;11.77;100.00;102211.75;5114283;28;20034;-72
2021/10/02 06:01:10;;;;;;;25.65;14.98;;;;;;;12.02;100.00;102210.06;5099533;28;20040;-72
2021/10/02 06:03:56;;;;;;;29.30;14.52;;;;;;;11.64;100.00;102203.88;5098156;28;20046;-73
2021/10/02 06:06:42;;;;;;;23.20;14.13;;;;;;;12.07;100.00;102209.19;5114483;28;20023;-73
2021/10/02 06:09:27;;;;;;;24.65;13.50;;;;;;;11.98;100.00;102219.66;5112972;28;20474;-72
2021/10/02 06:12:13;;;;;;;19.05;12.02;;;;;;;11.94;100.00;102214.41;5114667;28;20122;-73
2021/10/02 06:14:59;;;;;;;18.65;11.13;;;;;;;11.83;100.00;102213.53;5113948;28;20114;-71
2021/10/02 06:17:45;;;;;;;21.52;11.38;;;;;;;11.84;100.00;102212.66;5114667;28;20112;-72
2021/10/02 06:20:31;;;;;;;20.90;12.35;;;;;;;12.03;100.00;102220.56;5098828;28;20023;-73
2021/10/02 06:23:16;;;;;;;21.50;11.95;;;;;;;12.08;100.00;102224.06;5113141;28;20019;-72
2021/10/02 06:26:02;;;;;;;20.25;12.30;;;;;;;12.44;100.00;102216.16;5099383;28;20016;-72
2021/10/02 06:28:48;;;;;;;19.45;11.85;;;;;;;12.54;100.00;102230.16;5115465;28;20031;-72
2021/10/02 06:31:35;;;;;;;20.73;11.90;;;;;;;12.29;100.00;102229.31;5099202;28;20028;-72
2021/10/02 06:34:21;;;;;;;20.92;11.45;;;;;;;12.22;100.00;102232.81;5113274;28;20059;-72
2021/10/02 06:37:06;;;;;;;26.52;12.65;;;;;;;12.05;100.00;102231.06;5114178;28;20111;-72
2021/10/02 06:39:52;;;;;;;20.13;11.38;;;;;;;11.85;100.00;102240.69;5097568;28;20015;-73
2021/10/02 06:42:38;;;;;;;19.55;11.23;;;;;;;12.34;100.00;102238.06;5114420;28;20467;-72
2021/10/02 06:45:24;;;;;;;19.05;11.02;;;;;;;11.98;100.00;102232.78;5113959;28;20046;-73
2021/10/02 06:48:10;;;;;;;18.55;10.60;;;;;;;12.42;100.00;102236.28;5114558;28;20055;-73
2021/10/02 06:50:56;;;;;;;18.95;11.85;;;;;;;12.56;100.00;102236.28;5114067;28;20024;-73
2021/10/02 06:53:42;;;;;;;21.30;11.25;;;;;;;12.14;100.00;102237.19;5114821;28;20039;-73
2021/10/02 06:56:27;;;;;;;16.35;11.02;;;;;;;12.23;100.00;102234.59;5113505;28;20452;-73
2021/10/02 06:59:13;;;;;;;19.45;10.15;;;;;;;12.24;100.00;102241.56;5113907;28;20107;-74
2021/10/02 07:01:59;;;;;;;15.60;10.07;;;;;;;12.08;100.00;102239.81;5114603;28;20051;-72
2021/10/02 07:04:49;;;;;;;18.20;10.85;;;;;;;12.36;100.00;102241.56;5114727;28;20515;-73
2021/10/02 07:07:34;;;;;;;19.13;10.25;;;;;;;12.52;100.00;102227.53;5113173;28;20035;-73
2021/10/02 07:10:21;;;;;;;22.73;10.82;;;;;;;12.83;100.00;102223.09;5112833;28;20123;-74
2021/10/02 07:13:07;;;;;;;21.35;11.18;;;;;;;13.17;100.00;102233.53;5113621;28;20428;-72
2021/10/02 07:15:53;;;;;;;15.75;9.80;;;;;;;13.37;100.00;102234.31;5116359;28;20042;-73
2021/10/02 07:18:39;;;;;;;16.00;10.10;;;;;;;13.77;100.00;102230.56;5118251;28;20038;-72
2021/10/02 07:21:24;;;;;;;17.08;9.73;;;;;;;14.21;100.00;102225.88;5117536;28;20116;-72
2021/10/02 07:24:14;;;;;;;21.85;9.90;;;;;;;14.33;100.00;102224.91;5117817;28;20352;-73
2021/10/02 07:26:59;;;;;;;25.65;10.27;;;;;;;14.50;100.00;102236.16;5117338;28;20055;-72
2021/10/02 07:29:45;;;;;;;20.50;10.45;;;;;;;14.15;100.00;102225.88;5116276;28;20084;-72
2021/10/02 07:32:31;;;;;;;23.45;11.10;;;;;;;14.18;100.00;102235.53;5116848;28;20427;-73
2021/10/02 07:35:17;;;;;;;28.10;10.70;;;;;;;14.51;100.00;102238.78;5116893;28;20042;-72
2021/10/02 07:38:03;;;;;;;17.95;10.30;;;;;;;15.06;100.00;102239.06;5117447;28;20466;-74
2021/10/02 07:40:50;;;;;;;22.25;11.52;;;;;;;14.88;99.61;102226.97;5116966;28;20362;-71
2021/10/02 07:43:36;;;;;;;22.63;11.85;;;;;;;15.00;100.00;102235.63;5116745;28;20443;-73
2021/10/02 07:46:22;;;;;;;23.60;11.38;;;;;;;15.24;100.00;102235.34;5116865;28;20497;-73
2021/10/02 07:49:09;;;;;;;16.52;10.93;;;;;;;15.30;100.00;102227.38;5117273;28;20020;-72
2021/10/02 07:51:55;;;;;;;20.67;11.80;;;;;;;15.82;100.00;102223.09;5116258;28;20420;-73
2021/10/02 07:54:43;;;;;;;24.92;11.77;;;;;;;15.58;100.00;102221.69;5116124;28;20023;-72
2021/10/02 07:57:29;;;;;;;18.70;11.38;;;;;;;16.52;93.64;102213.16;5116119;28;20042;-72
2021/10/02 08:00:18;;;;;;;20.25;10.70;;;;;;;16.47;92.49;102204.44;5116129;28;20123;-72
2021/10/02 08:03:04;;;;;;;21.05;10.35;;;;;;;16.46;91.39;102214.16;5116704;28;20080;-72
2021/10/02 08:05:51;;;;;;;18.50;10.23;;;;;;;16.67;90.28;102212.84;5116410;28;20034;-72
2021/10/02 08:08:37;;;;;;;18.17;10.25;;;;;;;16.81;88.89;102211.72;5115614;28;20038;-72
2021/10/02 08:11:23;;;;;;;15.95;9.77;;;;;;;16.85;89.02;102209.88;5100372;28;20052;-72
2021/10/02 08:14:10;;;;;;;19.20;10.15;;;;;;;16.70;92.83;102212.81;5116982;28;20436;-72
2021/10/02 08:16:57;;;;;;;21.17;11.02;;;;;;;16.61;91.79;102202.41;5101061;28;20035;-73
2021/10/02 08:19:45;;;;;;;20.75;11.05;;;;;;;16.51;91.40;102209.63;5115717;28;20020;-71
2021/10/02 08:22:31;;;;;;;22.13;10.25;;;;;;;16.39;94.00;102203.69;5116356;28;20027;-72
2021/10/02 08:25:18;;;;;;;19.52;10.07;;;;;;;17.27;89.35;102201.03;5116614;28;20051;-72
2021/10/02 08:28:05;;;;;;;16.65;10.35;;;;;;;17.55;82.11;102205.75;5114859;28;20368;-72
2021/10/02 08:30:52;;;;;;;15.32;9.75;;;;;;;17.77;83.10;102200.84;5115443;28;20196;-72
2021/10/02 08:33:38;;;;;;;17.98;9.70;;;;;;;17.77;80.25;102198.19;5116269;28;20019;-71
2021/10/02 08:36:24;;;;;;;16.90;9.77;;;;;;;17.94;79.08;102196.00;5116409;28;20039;-73
2021/10/02 08:39:11;;;;;;;23.25;11.02;;;;;;;18.26;73.97;102196.06;5102171;28;20046;-72
2021/10/02 08:41:58;;;;;;;17.25;9.98;;;;;;;18.09;74.68;102200.94;5115964;28;20061;-72
2021/10/02 08:44:45;;;;;;;21.30;9.70;;;;;;;18.43;73.59;102196.53;5116023;28;20359;-72
2021/10/02 08:47:36;;;;;;;18.40;10.32;;;;;;;18.18;74.19;102193.63;5115883;28;20122;-72
2021/10/02 08:50:22;;;;;;;14.63;9.30;;;;;;;17.90;76.36;102181.06;5100388;28;20110;-72
2021/10/02 08:53:09;;;;;;;17.67;9.98;;;;;;;18.02;76.08;102180.78;5100286;28;20027;-72
2021/10/02 08:55:56;;;;;;;19.33;9.75;;;;;;;18.39;74.93;102181.59;5101486;28;20032;-72
2021/10/02 08:58:42;;;;;;;19.08;9.52;;;;;;;18.36;73.41;102171.94;5115654;28;20027;-72
2021/10/02 09:01:28;;;;;;;13.07;8.35;;;;;;;18.72;70.91;102178.03;5116134;28;20024;-73
2021/10/02 09:04:14;;;;;;;16.48;8.95;;;;;;;18.49;73.38;102175.16;5115388;28;20027;-71
2021/10/02 09:07:01;;;;;;;16.40;8.68;;;;;;;18.15;70.75;102168.94;5114881;28;20019;-72
2021/10/02 09:09:48;;;;;;;13.02;8.00;;;;;;;18.48;68.92;102163.66;5115172;28;20028;-73
2021/10/02 09:12:34;;;;;;;13.23;7.75;;;;;;;18.66;70.68;102167.59;5115616;28;20043;-73
2021/10/02 09:15:21;;;;;;;14.75;7.25;;;;;;;19.21;66.75;102170.41;5100350;28;20027;-73
2021/10/02 09:18:07;;;;;;;11.88;7.43;;;;;;;19.06;68.33;102162.88;5115846;28;20031;-73
2021/10/02 09:21:01;;;;;;;7.90;5.50;;;;;;;18.72;66.72;102159.44;5115913;28;20015;-72
2021/10/02 09:23:49;;;;;;;11.48;5.65;;;;;;;18.32;67.36;102159.63;5115790;28;20367;-72
2021/10/02 09:26:45;;;;;;;11.05;5.57;;;;;;;18.31;68.07;102147.28;5115276;28;20050;-73
2021/10/02 09:29:39;;;;;;;8.13;5.20;;;;;;;18.24;66.61;102148.34;5115304;28;20136;-72
2021/10/02 09:32:31;;;;;;;9.70;5.40;;;;;;;18.49;66.26;102141.50;5115075;28;20114;-73
2021/10/02 09:35:21;;;;;;;12.23;5.05;;;;;;;18.57;64.05;102138.66;5116125;28;20317;-73
2021/10/02 09:38:25;;;;;;;8.65;4.55;;;;;;;18.72;62.46;102144.38;5114032;28;20039;-72
2021/10/02 09:41:11;;;;;;;6.93;4.63;;;;;;;18.50;61.75;102142.38;5115226;28;20033;-72
2021/10/02 09:43:57;;;;;;;8.48;4.50;;;;;;;18.12;62.47;102131.84;5115019;28;20088;-72
2021/10/02 09:46:43;;;;;;;11.00;4.50;;;;;;;18.61;62.27;102132.34;5114778;28;20023;-72
2021/10/02 09:49:44;;;;;;;9.05;4.57;;;;;;;18.76;60.79;102131.88;5115394;28;20046;-72
2021/10/02 09:52:35;;;;;;;5.88;4.20;;;;;;;19.07;59.57;102135.41;5113800;28;20028;-72
2021/10/02 09:55:30;;;;;;;10.82;4.50;;;;;;;18.64;60.65;102135.78;5115587;28;20100;-72
2021/10/02 09:58:32;;;;;;;8.23;4.15;;;;;;;18.56;61.79;102123.59;5099367;28;20523;-72
2021/10/02 10:01:23;;;;;;;6.45;4.28;;;;;;;18.45;63.00;102120.41;5114557;28;20024;-72
2021/10/02 10:04:08;;;;;;;8.75;4.30;;;;;;;18.81;60.38;102122.03;5113912;28;20102;-73
2021/10/02 10:07:15;;;;;;;6.65;4.13;;;;;;;18.92;59.19;102118.13;5114658;28;20088;-73
2021/10/02 10:10:06;;;;;;;7.72;3.92;;;;;;;18.97;58.58;102110.88;5114904;28;20062;-73
2021/10/02 10:12:52;;;;;;;9.23;3.83;;;;;;;19.31;57.37;102105.44;5114799;28;20170;-72
2021/10/02 10:15:41;;;;;;;6.55;3.83;;;;;;;19.38;56.38;102100.81;5099916;28;20412;-72
2021/10/02 10:18:28;;;;;;;10.98;4.00;;;;;;;19.08;55.00;102107.91;5115432;28;20024;-72
2021/10/02 10:21:14;;;;;;;8.68;4.43;;;;;;;19.13;55.23;102106.00;5114831;28;20019;-73
2021/10/02 10:24:05;;;;;;;10.25;4.18;;;;;;;18.90;55.53;102101.34;5113869;28;20055;-72
2021/10/02 10:26:54;;;;;;;8.63;4.63;;;;;;;19.38;54.78;102091.06;5099392;28;20456;-72
2021/10/02 10:29:43;;;;;;;8.82;4.55;;;;;;;18.75;54.15;102098.28;5100501;28;20108;-73
2021/10/02 10:32:29;;;;;;;8.88;4.40;;;;;;;18.61;55.82;102088.06;5115137;28;20366;-72
2021/10/02 10:35:14;;;;;;;12.45;4.50;;;;;;;19.24;54.15;102085.28;5114966;28;20458;-72
2021/10/02 10:38:02;;;;;;;13.57;4.60;;;;;;;19.08;53.77;102089.31;5114168;28;20085;-72
2021/10/02 10:40:49;;;;;;;7.03;4.15;;;;;;;18.14;56.40;102079.66;5114316;28;20341;-72
2021/10/02 10:43:35;;;;;;;8.43;4.38;;;;;;;18.09;58.70;102077.09;5113627;28;20038;-73
2021/10/02 10:46:23;;;;;;;8.55;4.50;;;;;;;19.27;56.37;102073.69;5097496;28;20096;-72
2021/10/02 10:49:08;;;;;;;8.15;4.60;;;;;;;19.47;53.37;102074.81;5099716;28;20043;-72
2021/10/02 10:51:59;;;;;;;10.52;4.47;;;;;;;18.67;54.08;102073.75;5102918;28;20135;-73
2021/10/02 10:54:50;;;;;;;13.68;5.15;;;;;;;19.05;54.16;102076.13;5118748;28;20039;-73
2021/10/02 10:57:42;;;;;;;8.52;4.68;;;;;;;19.40;53.94;102069.75;5117924;28;20474;-72
2021/10/02 11:00:30;;;;;;;10.18;4.63;;;;;;;19.67;52.23;102060.84;5102953;28;20023;-73
2021/10/02 11:03:46;;;;;;;9.00;4.63;;;;;;;20.32;51.73;102062.09;5118196;28;20065;-72
2021/10/02 11:06:50;;;;;;;9.85;4.57;;;;;;;20.66;50.40;102054.63;5118042;28;20484;-73
2021/10/02 11:09:44;;;;;;;9.55;4.93;;;;;;;20.80;50.79;102054.94;5117886;28;20090;-73
2021/10/02 11:12:54;;;;;;;11.93;5.80;;;;;;;20.27;50.52;102056.09;5103519;28;20043;-72
2021/10/02 11:15:41;;;;;;;11.07;6.93;;;;;;;20.17;49.89;102050.22;5117672;28;20024;-72
2021/10/02 11:18:43;;;;;;;13.80;6.82;;;;;;;20.84;47.92;102032.59;5103866;28;20036;-72
2021/10/02 11:21:30;;;;;;;12.13;7.28;;;;;;;20.58;48.26;102038.91;5117401;28;20016;-72
2021/10/02 11:24:16;;;;;;;11.82;7.40;;;;;;;20.15;49.23;102038.78;5118144;28;20452;-72
2021/10/02 11:27:02;;;;;;;23.02;8.82;;;;;;;20.02;50.08;102039.22;5117410;28;20031;-72
2021/10/02 11:29:48;;;;;;;15.85;8.73;;;;;;;19.55;50.12;102030.22;5118351;28;20523;-73
2021/10/02 11:32:34;;;;;;;16.05;8.60;;;;;;;20.21;49.32;102029.69;5118092;28;20144;-73
2021/10/02 11:35:25;;;;;;;15.35;8.73;;;;;;;20.63;48.48;102026.31;5102107;28;20448;-73
2021/10/02 11:38:11;;;;;;;16.77;10.18;;;;;;;19.81;49.45;102022.22;5117537;28;20114;-73
2021/10/02 11:40:57;;;;;;;16.55;10.60;;;;;;;19.56;49.63;102009.84;5116711;28;20047;-73
2021/10/02 11:43:53;;;;;;;19.35;11.15;;;;;;;19.74;50.28;102007.41;5116087;28;20129;-73
2021/10/02 11:46:39;;;;;;;19.15;11.85;;;;;;;20.03;49.58;102014.34;5116685;28;20422;-73
2021/10/02 11:49:25;;;;;;;19.33;11.07;;;;;;;20.51;49.31;102010.81;5117039;28;20023;-72
2021/10/02 11:52:12;;;;;;;14.73;9.10;;;;;;;19.99;48.30;102015.38;5116775;28;20031;-72
2021/10/02 11:55:33;;;;;;;14.93;8.10;;;;;;;19.97;48.24;102010.09;5117295;28;20024;-72
2021/10/02 11:58:20;;;;;;;14.82;6.05;;;;;;;19.61;49.88;102008.72;5116798;28;20106;-72
2021/10/02 12:01:06;;;;;;;13.10;6.70;;;;;;;19.32;48.90;102000.03;5114998;28;20023;-72
2021/10/02 12:04:03;;;;;;;11.85;6.15;;;;;;;19.98;48.45;101992.38;5116684;28;20029;-72
2021/10/02 12:06:53;;;;;;;13.27;5.90;;;;;;;20.77;47.72;101997.34;5117026;28;20028;-73
2021/10/02 12:09:38;;;;;;;18.08;9.60;;;;;;;20.63;47.96;101993.47;5116441;28;20024;-73
2021/10/02 12:12:24;;;;;;;14.45;8.88;;;;;;;20.91;47.63;101995.03;5117310;28;20078;-73
2021/10/02 12:15:10;;;;;;;19.27;10.02;;;;;;;20.74;48.34;101988.59;5116586;28;20097;-72
2021/10/02 12:17:56;;;;;;;13.98;8.77;;;;;;;20.87;47.51;101989.84;5101318;28;20024;-72
2021/10/02 12:20:43;;;;;;;15.48;8.73;;;;;;;20.64;47.52;101995.19;5116264;28;20034;-72
2021/10/02 12:23:28;;;;;;;13.05;8.15;;;;;;;19.98;48.64;101993.25;5116906;28;20035;-72
2021/10/02 12:26:14;;;;;;;18.20;8.43;;;;;;;20.36;48.04;102000.72;5116622;28;20077;-72
2021/10/02 12:29:03;;;;;;;16.20;8.23;;;;;;;20.16;47.82;101992.59;5116475;28;20027;-72
2021/10/02 12:32:07;;;;;;;13.73;7.55;;;;;;;19.99;48.52;101992.31;5116459;28;20060;-74
2021/10/02 12:35:00;;;;;;;12.57;7.32;;;;;;;20.26;48.16;101991.34;5116284;28;20023;-73
2021/10/02 12:37:46;;;;;;;13.48;7.57;;;;;;;20.32;49.01;101987.56;5116964;28;20055;-72
2021/10/02 12:40:31;;;;;;;14.63;7.70;;;;;;;20.64;48.69;101989.88;5115985;28;20115;-73
2021/10/02 12:43:17;;;;;;;15.20;7.30;;;;;;;19.85;49.65;101983.09;5116816;28;20032;-73
2021/10/02 12:46:18;;;;;;;11.52;7.25;;;;;;;20.08;49.53;101983.13;5102099;28;20027;-73
2021/10/02 12:49:03;;;;;;;13.73;7.00;;;;;;;19.57;50.84;101983.16;5116483;28;20351;-72
2021/10/02 12:51:50;;;;;;;13.75;6.95;;;;;;;20.28;50.03;101989.47;5115963;28;20027;-73
2021/10/02 12:54:40;;;;;;;12.65;6.85;;;;;;;20.49;48.51;101978.00;5116705;28;20019;-72
2021/10/02 12:57:27;;;;;;;11.18;6.45;;;;;;;20.57;48.30;101977.75;5101799;28;20058;-72
2021/10/02 13:00:18;;;;;;;12.65;6.72;;;;;;;20.22;48.30;101981.75;5101318;28;20104;-71
2021/10/02 13:03:04;;;;;;;12.88;6.70;;;;;;;20.09;48.79;101968.91;5116424;28;20020;-72
2021/10/02 13:05:59;;;;;;;10.00;6.65;;;;;;;20.33;49.38;101971.53;5116480;28;20066;-72
2021/10/02 13:08:45;;;;;;;15.70;7.63;;;;;;;20.22;48.95;101980.88;5115440;28;20114;-72
2021/10/02 13:11:31;;;;;;;11.98;6.97;;;;;;;20.14;49.76;101975.84;5115358;28;20075;-72
2021/10/02 13:14:31;;;;;;;8.55;6.05;;;;;;;20.24;50.29;101971.88;5113788;28;20034;-72
2021/10/02 13:17:17;;;;;;;9.23;5.75;;;;;;;20.45;49.25;101973.72;5115323;28;20051;-72
2021/10/02 13:20:07;;;;;;;8.40;5.55;;;;;;;20.45;50.04;101973.72;5116287;28;20019;-72
2021/10/02 13:22:53;;;;;;;14.60;5.60;;;;;;;20.51;49.25;101972.63;5100934;28;20025;-75
2021/10/02 13:26:05;;;;;;;7.85;5.30;;;;;;;20.19;50.14;101981.84;5116378;28;20038;-72
2021/10/02 13:28:55;;;;;;;11.00;5.90;;;;;;;20.05;51.05;101978.78;5115312;28;20027;-72
2021/10/02 13:31:41;;;;;;;9.98;5.93;;;;;;;20.45;50.26;101986.19;5115453;28;20451;-72
2021/10/02 13:34:27;;;;;;;10.02;6.20;;;;;;;19.96;51.08;101984.44;5114984;28;20049;-72
2021/10/02 13:37:12;;;;;;;10.68;7.00;;;;;;;19.29;52.34;101986.81;5114683;28;20020;-72
2021/10/02 13:40:02;;;;;;;10.50;7.13;;;;;;;19.64;53.07;101976.72;5113506;28;20027;-73